Time;durP1;ratioP1;P1;durP2;ratioP2;P2;SDS_P1;SDS_P2;PMS_P1;PMS_P2;Temp;Humidity;BMP_temperature;BMP_pressure;BME280_temperature;BME280_humidity;BME280_pressure;Samples;Min_cycle;Max_cycle;Signal;HPM_P1;HPM_P2
2022/01/02 00:01:42;;;;;;;;;;;;;;;17.94;58.71;101280.94;4937083;28;98549;-58
2022/01/02 00:04:08;;;;;;;;;;;;;;;17.92;58.51;101289.44;4927393;28;98034;-66
2022/01/02 00:06:36;;;;;;;;;;;;;;;17.92;58.59;101270.34;4923295;28;127706;-58
2022/01/02 00:09:05;;;;;;;;;;;;;;;17.93;58.60;101260.22;4923557;28;98078;-58
2022/01/02 00:11:32;;;;;;;;;;;;;;;17.90;58.52;101248.81;4941459;28;98635;-59
2022/01/02 00:14:06;;;;;;;;;;;;;;;17.89;58.50;101252.63;4941406;28;101536;-58
2022/01/02 00:16:34;;;;;;;;;;;;;;;17.88;58.62;101247.47;4941579;28;98046;-66
2022/01/02 00:19:07;;;;;;;;;;;;;;;17.88;58.54;101242.00;4940470;28;99572;-66
2022/01/02 00:21:34;;;;;;;;;;;;;;;17.87;58.62;101238.47;4936442;28;98223;-66
2022/01/02 00:24:05;;;;;;;;;;;;;;;17.88;58.69;101225.66;4919917;28;98064;-66
2022/01/02 00:26:42;;;;;;;;;;;;;;;17.87;58.63;101218.59;4917578;28;97947;-66
2022/01/02 00:29:08;;;;;;;;;;;;;;;17.85;58.62;101212.63;4922778;28;98061;-66
2022/01/02 00:31:34;;;;;;;;;;;;;;;17.84;58.58;101205.53;4923420;28;98337;-58
2022/01/02 00:34:01;;;;;;;;;;;;;;;17.84;58.54;101211.84;4921675;28;98992;-66
2022/01/02 00:36:27;;;;;;;;;;;;;;;17.83;58.54;101218.38;4921368;28;98358;-58
2022/01/02 00:38:53;;;;;;;;;;;;;;;17.81;58.54;101220.59;4939597;28;97856;-58
2022/01/02 00:41:23;;;;;;;;;;;;;;;17.81;58.43;101222.53;4941169;28;97741;-58
2022/01/02 00:44:02;;;;;;;;;;;;;;;17.79;58.35;101228.25;4939094;28;106753;-66
2022/01/02 00:46:29;;;;;;;;;;;;;;;17.79;58.40;101222.78;4939693;28;100462;-58
2022/01/02 00:48:56;;;;;;;;;;;;;;;17.78;58.39;101229.38;4940514;28;111736;-58
2022/01/02 00:51:43;;;;;;;;;;;;;;;17.78;58.48;101228.56;4938234;28;121117;-66
2022/01/02 00:54:09;;;;;;;;;;;;;;;17.76;58.45;101217.13;4931178;28;97992;-66
2022/01/02 00:56:35;;;;;;;;;;;;;;;17.75;58.52;101208.13;4936612;28;98010;-58
2022/01/02 00:59:01;;;;;;;;;;;;;;;17.75;58.39;101207.34;4918290;28;109180;-58
2022/01/02 01:01:33;;;;;;;;;;;;;;;17.75;58.38;101194.50;4921999;28;121020;-65
2022/01/02 01:03:59;;;;;;;;;;;;;;;17.73;58.45;101187.72;4926172;28;97877;-58
2022/01/02 01:06:27;;;;;;;;;;;;;;;17.72;58.54;101191.53;4939778;28;127322;-58
2022/01/02 01:08:56;;;;;;;;;;;;;;;17.71;58.40;101196.19;4928330;28;98001;-66
2022/01/02 01:11:25;;;;;;;;;;;;;;;17.70;58.36;101188.31;4917349;28;98171;-66
2022/01/02 01:13:52;;;;;;;;;;;;;;;17.70;58.33;101189.13;4925045;28;98311;-65
2022/01/02 01:16:18;;;;;;;;;;;;;;;17.67;58.25;101185.06;4924729;28;97731;-66
2022/01/02 01:18:44;;;;;;;;;;;;;;;17.67;58.34;101185.06;4925415;28;98175;-58
2022/01/02 01:21:10;;;;;;;;;;;;;;;17.66;58.49;101178.00;4923852;28;129228;-67
2022/01/02 01:23:36;;;;;;;;;;;;;;;17.66;58.48;101175.28;4929606;28;127973;-65
2022/01/02 01:26:06;;;;;;;;;;;;;;;17.65;58.34;101173.66;4941759;28;126480;-58
2022/01/02 01:28:32;;;;;;;;;;;;;;;17.64;58.32;101163.03;4928219;28;98415;-58
2022/01/02 01:30:58;;;;;;;;;;;;;;;17.64;58.33;101155.69;4924766;28;125853;-58
2022/01/02 01:33:24;;;;;;;;;;;;;;;17.63;58.31;101153.25;4937229;28;129134;-66
2022/01/02 01:35:50;;;;;;;;;;;;;;;17.64;58.23;101152.13;4941478;28;127565;-66
2022/01/02 01:38:16;;;;;;;;;;;;;;;17.62;58.20;101141.53;4943404;28;116947;-58
2022/01/02 01:40:52;;;;;;;;;;;;;;;17.61;58.33;101142.66;4926817;28;128145;-66
2022/01/02 01:43:18;;;;;;;;;;;;;;;17.60;58.38;101130.09;4923567;28;97874;-66
2022/01/02 01:45:44;;;;;;;;;;;;;;;17.60;58.44;101121.13;4922622;28;98088;-66
2022/01/02 01:48:10;;;;;;;;;;;;;;;17.60;58.29;101130.09;4939166;28;117264;-66
2022/01/02 01:50:40;;;;;;;;;;;;;;;17.58;58.36;101124.16;4943384;28;98815;-66
2022/01/02 01:53:07;;;;;;;;;;;;;;;17.57;58.35;101124.47;4942358;28;98484;-66
2022/01/02 01:55:33;;;;;;;;;;;;;;;17.57;58.29;101125.28;4944193;28;98238;-58
2022/01/02 01:58:00;;;;;;;;;;;;;;;17.56;58.25;101117.38;4943453;28;110240;-66
2022/01/02 02:00:26;;;;;;;;;;;;;;;17.54;58.23;101114.16;4943153;28;98222;-58
2022/01/02 02:02:52;;;;;;;;;;;;;;;17.53;58.42;101105.19;4943471;28;98406;-65
2022/01/02 02:05:18;;;;;;;;;;;;;;;17.51;58.27;101104.66;4939757;28;98224;-65
2022/01/02 02:07:45;;;;;;;;;;;;;;;17.52;58.27;101102.72;4944105;28;97905;-65
2022/01/02 02:10:27;;;;;;;;;;;;;;;17.50;58.36;101107.69;4942785;28;98059;-66
2022/01/02 02:12:57;;;;;;;;;;;;;;;17.49;58.25;101109.59;4943102;28;98722;-66
2022/01/02 02:15:23;;;;;;;;;;;;;;;17.48;58.44;101099.78;4933533;28;98074;-58
2022/01/02 02:17:50;;;;;;;;;;;;;;;17.46;58.21;101088.41;4924978;28;97913;-58
2022/01/02 02:20:17;;;;;;;;;;;;;;;17.46;58.43;101085.66;4925059;28;99268;-58
2022/01/02 02:22:46;;;;;;;;;;;;;;;17.45;58.23;101070.44;4926289;28;97901;-65
2022/01/02 02:25:12;;;;;;;;;;;;;;;17.45;58.08;101066.88;4923745;28;98347;-66
2022/01/02 02:27:38;;;;;;;;;;;;;;;17.43;58.30;101054.38;4923739;28;98113;-59
2022/01/02 02:30:05;;;;;;;;;;;;;;;17.43;58.18;101045.38;4941596;28;128092;-58
2022/01/02 02:32:31;;;;;;;;;;;;;;;17.43;58.27;101039.94;4942338;28;112931;-58
2022/01/02 02:34:57;;;;;;;;;;;;;;;17.43;58.40;101023.59;4942221;28;128090;-66
2022/01/02 02:37:25;;;;;;;;;;;;;;;17.41;58.14;101012.19;4924539;28;118032;-58
2022/01/02 02:39:51;;;;;;;;;;;;;;;17.40;58.19;101019.53;4923627;28;99017;-58
2022/01/02 02:50:57;;;;;;;;;;;;;;;17.37;58.25;101022.03;4943048;28;98062;-65
2022/01/02 02:53:23;;;;;;;;;;;;;;;17.35;58.40;101006.00;4941656;28;126818;-58
2022/01/02 02:55:55;;;;;;;;;;;;;;;17.35;58.23;100997.84;4942633;28;128231;-66
2022/01/02 02:58:39;;;;;;;;;;;;;;;17.34;58.31;100989.97;4942539;28;97761;-66
2022/01/02 03:01:05;;;;;;;;;;;;;;;17.33;58.43;100989.16;4928727;28;98822;-66
2022/01/02 03:03:32;;;;;;;;;;;;;;;17.33;58.19;101010.13;4929274;28;104768;-65
2022/01/02 03:05:58;;;;;;;;;;;;;;;17.31;58.36;101043.13;4921524;28;98164;-66
2022/01/02 03:08:24;;;;;;;;;;;;;;;17.32;58.35;101057.56;4936370;28;117503;-58
2022/01/02 03:10:49;;;;;;;;;;;;;;;17.30;58.30;101029.81;4942274;28;97864;-58
2022/01/02 03:13:15;;;;;;;;;;;;;;;17.30;58.38;101029.81;4943024;28;98711;-65
2022/01/02 03:15:41;;;;;;;;;;;;;;;17.28;58.20;100997.41;4941086;28;126932;-66
2022/01/02 03:18:07;;;;;;;;;;;;;;;17.27;58.29;100984.91;4923467;28;116126;-58
2022/01/02 03:20:33;;;;;;;;;;;;;;;17.27;58.35;100990.34;4923214;28;99128;-66
2022/01/02 03:22:59;;;;;;;;;;;;;;;17.26;58.25;100994.19;4923606;28;128190;-64
2022/01/02 03:25:25;;;;;;;;;;;;;;;17.26;58.19;100980.56;4923724;28;126812;-65
2022/01/02 03:27:51;;;;;;;;;;;;;;;17.24;58.21;100971.06;4922225;28;117247;-66
2022/01/02 03:30:17;;;;;;;;;;;;;;;17.23;58.35;100964.81;4921481;28;127096;-58
2022/01/02 03:32:42;;;;;;;;;;;;;;;17.23;58.30;100961.28;4936916;28;127063;-66
2022/01/02 03:35:08;;;;;;;;;;;;;;;17.22;58.26;100935.97;4942089;28;127521;-58
2022/01/02 03:37:34;;;;;;;;;;;;;;;17.21;58.13;100925.34;4933244;28;116728;-65
2022/01/02 03:40:01;;;;;;;;;;;;;;;17.20;58.10;100923.75;4932751;28;128489;-65
2022/01/02 03:42:27;;;;;;;;;;;;;;;17.19;58.16;100931.13;4941574;28;98513;-58
2022/01/02 03:44:53;;;;;;;;;;;;;;;17.18;58.29;100930.31;4941005;28;126701;-66
2022/01/02 03:47:19;;;;;;;;;;;;;;;17.18;58.11;100937.69;4922745;28;118959;-58
2022/01/02 03:49:45;;;;;;;;;;;;;;;17.17;58.17;100928.72;4921018;28;127039;-58
2022/01/02 03:52:11;;;;;;;;;;;;;;;17.17;58.18;100936.03;4922088;28;97805;-59
2022/01/02 03:54:37;;;;;;;;;;;;;;;17.15;58.19;100930.91;4922682;28;110466;-58
2022/01/02 03:57:03;;;;;;;;;;;;;;;17.14;58.14;100929.31;4938086;28;97975;-66
2022/01/02 03:59:29;;;;;;;;;;;;;;;17.15;58.18;100941.00;4922521;28;99093;-58
2022/01/02 04:01:55;;;;;;;;;;;;;;;17.14;58.09;100951.09;4935550;28;126954;-66
2022/01/02 04:04:21;;;;;;;;;;;;;;;17.14;58.20;100932.03;4922501;28;127481;-58
2022/01/02 04:06:47;;;;;;;;;;;;;;;17.13;58.08;100911.34;4922326;28;119334;-65
2022/01/02 04:09:13;;;;;;;;;;;;;;;17.13;58.05;100915.97;4940602;28;128790;-66
2022/01/02 04:11:39;;;;;;;;;;;;;;;17.12;58.18;100903.47;4940950;28;127116;-66
2022/01/02 04:14:05;;;;;;;;;;;;;;;17.11;58.13;100899.13;4941736;28;126786;-58
2022/01/02 04:16:30;;;;;;;;;;;;;;;17.10;58.19;100895.59;4936878;28;109154;-66
2022/01/02 04:18:56;;;;;;;;;;;;;;;17.11;58.15;100891.75;4922652;28;110557;-58
2022/01/02 04:21:22;;;;;;;;;;;;;;;17.10;58.02;100889.34;4922072;28;128781;-58
2022/01/02 04:23:48;;;;;;;;;;;;;;;17.10;58.09;100895.59;4922331;28;127808;-66
2022/01/02 04:26:14;;;;;;;;;;;;;;;17.09;58.05;100895.88;4929226;28;113784;-65
2022/01/02 04:28:40;;;;;;;;;;;;;;;17.10;58.27;100895.59;4915782;28;128686;-65
2022/01/02 04:31:06;;;;;;;;;;;;;;;17.09;58.07;100893.97;4920209;28;127870;-66
2022/01/02 04:33:32;;;;;;;;;;;;;;;17.09;58.09;100893.16;4922126;28;98485;-65
2022/01/02 04:35:58;;;;;;;;;;;;;;;17.09;58.11;100885.78;4923520;28;115959;-58
2022/01/02 04:38:24;;;;;;;;;;;;;;;17.09;58.04;100879.53;4926068;28;98402;-65
2022/01/02 04:40:50;;;;;;;;;;;;;;;17.08;58.10;100867.84;4942628;28;121755;-65
2022/01/02 04:43:16;;;;;;;;;;;;;;;17.08;58.07;100869.78;4945543;28;98397;-66
2022/01/02 04:45:42;;;;;;;;;;;;;;;17.09;58.12;100874.91;4945097;28;115664;-58
2022/01/02 04:48:07;;;;;;;;;;;;;;;17.08;57.98;100865.13;4944684;28;98198;-66
2022/01/02 04:50:33;;;;;;;;;;;;;;;17.08;58.22;100864.31;4908326;28;127961;-66
2022/01/02 04:52:59;;;;;;;;;;;;;;;17.08;57.91;100859.69;4927454;28;123059;-58
2022/01/02 04:55:25;;;;;;;;;;;;;;;17.08;58.00;100858.88;4925035;28;97873;-65
2022/01/02 04:57:51;;;;;;;;;;;;;;;17.07;57.88;100855.34;4925485;28;128118;-65
2022/01/02 05:00:17;;;;;;;;;;;;;;;17.07;57.88;100852.63;4923987;28;122005;-66
2022/01/02 05:02:43;;;;;;;;;;;;;;;17.07;57.96;100858.06;4932865;28;120517;-66
2022/01/02 05:05:09;;;;;;;;;;;;;;;17.08;58.05;100850.72;4925971;28;105946;-66
2022/01/02 05:07:35;;;;;;;;;;;;;;;17.08;57.88;100845.25;4932544;28;113142;-59
2022/01/02 05:10:01;;;;;;;;;;;;;;;17.07;57.92;100839.00;4941742;28;107128;-59
2022/01/02 05:12:27;;;;;;;;;;;;;;;17.07;57.69;100847.19;4943790;28;119915;-65
2022/01/02 05:14:53;;;;;;;;;;;;;;;17.07;57.98;100833.56;4943597;28;117086;-58
2022/01/02 05:17:19;;;;;;;;;;;;;;;17.07;58.00;100830.84;4947472;28;98311;-58
2022/01/02 05:19:45;;;;;;;;;;;;;;;17.07;57.83;100819.94;4943263;28;128066;-58
2022/01/02 05:22:11;;;;;;;;;;;;;;;17.07;58.02;100817.22;4939388;28;127664;-58
2022/01/02 05:24:37;;;;;;;;;;;;;;;17.07;57.79;100819.94;4924266;28;115904;-58
2022/01/02 05:27:03;;;;;;;;;;;;;;;17.07;57.84;100802.81;4924308;28;102962;-58
2022/01/02 05:29:29;;;;;;;;;;;;;;;17.07;58.04;100795.44;4924315;28;120786;-66
2022/01/02 05:31:55;;;;;;;;;;;;;;;17.07;57.87;100792.72;4897558;28;127138;-65
2022/01/02 05:34:21;;;;;;;;;;;;;;;17.06;57.92;100791.09;4920233;28;106000;-66
2022/01/02 05:36:49;;;;;;;;;;;;;;;17.06;57.96;100790.31;4924761;28;128187;-64
2022/01/02 05:39:17;;;;;;;;;;;;;;;17.06;57.88;100776.69;4918183;28;98115;-66
2022/01/02 05:41:43;;;;;;;;;;;;;;;17.06;57.94;100779.41;4924542;28;98054;-58
2022/01/02 05:44:09;;;;;;;;;;;;;;;17.05;57.85;100783.22;4923856;28;109087;-65
2022/01/02 05:46:35;;;;;;;;;;;;;;;17.05;57.92;100783.22;4924356;28;99917;-66
2022/01/02 05:49:00;;;;;;;;;;;;;;;17.05;57.99;100783.22;4922424;28;118011;-58
2022/01/02 05:51:26;;;;;;;;;;;;;;;17.04;57.94;100782.41;4922253;28;127902;-65
2022/01/02 05:53:52;;;;;;;;;;;;;;;17.04;57.90;100785.13;4920670;28;118154;-66
2022/01/02 05:56:18;;;;;;;;;;;;;;;17.05;57.93;100785.94;4923312;28;128048;-66
2022/01/02 05:58:44;;;;;;;;;;;;;;;17.04;57.92;100779.69;4922982;28;126213;-58
2022/01/02 06:01:10;;;;;;;;;;;;;;;17.03;57.80;100780.81;4940998;28;127703;-58
2022/01/02 06:03:36;;;;;;;;;;;;;;;17.05;57.93;100775.06;4928010;28;117524;-66
2022/01/02 06:06:02;;;;;;;;;;;;;;;17.05;57.94;100780.50;4923279;28;119998;-66
2022/01/02 06:08:28;;;;;;;;;;;;;;;17.05;57.83;100783.22;4934800;28;104776;-58
2022/01/02 06:10:54;;;;;;;;;;;;;;;17.05;57.92;100769.59;4924241;28;98311;-58
2022/01/02 06:13:20;;;;;;;;;;;;;;;17.05;57.87;100764.16;4925201;28;116399;-65
2022/01/02 06:15:46;;;;;;;;;;;;;;;17.04;57.78;100774.25;4924190;28;98391;-66
2022/01/02 06:18:12;;;;;;;;;;;;;;;17.04;57.79;100768.81;4922928;28;123590;-63
2022/01/02 06:20:38;;;;;;;;;;;;;;;17.04;57.90;100766.09;4922327;28;128501;-58
2022/01/02 06:23:04;;;;;;;;;;;;;;;17.03;57.88;100763.66;4938368;28;98175;-66
2022/01/02 06:25:30;;;;;;;;;;;;;;;17.04;57.87;100768.00;4922458;28;128868;-66
2022/01/02 06:27:56;;;;;;;;;;;;;;;17.03;57.92;100752.78;4933947;28;98329;-65
2022/01/02 06:30:22;;;;;;;;;;;;;;;17.02;57.67;100754.69;4942546;28;126727;-66
2022/01/02 06:32:54;;;;;;;;;;;;;;;17.03;57.73;100761.75;4939412;28;107415;-66
2022/01/02 06:35:26;;;;;;;;;;;;;;;17.03;57.70;100760.94;4941826;28;98494;-67
2022/01/02 06:37:53;;;;;;;;;;;;;;;17.02;57.70;100754.69;4940916;28;118894;-66
2022/01/02 06:40:19;;;;;;;;;;;;;;;17.02;57.71;100751.19;4940560;28;97894;-65
2022/01/02 06:42:46;;;;;;;;;;;;;;;17.01;57.83;100755.78;4941953;28;114824;-66
2022/01/02 06:45:11;;;;;;;;;;;;;;;17.02;57.69;100762.06;4943429;28;98353;-66
2022/01/02 06:47:37;;;;;;;;;;;;;;;17.01;57.81;100772.13;4943383;28;128404;-66
2022/01/02 06:50:04;;;;;;;;;;;;;;;17.01;57.70;100766.69;4942428;28;127588;-66
2022/01/02 06:52:30;;;;;;;;;;;;;;;17.02;57.52;100762.88;4943229;28;110869;-65
2022/01/02 06:54:56;;;;;;;;;;;;;;;17.01;57.83;100755.78;4938715;28;126089;-65
2022/01/02 06:57:22;;;;;;;;;;;;;;;16.99;57.81;100763.47;4941136;28;98160;-65
2022/01/02 06:59:49;;;;;;;;;;;;;;;17.01;57.76;100744.09;4932966;28;113207;-66
2022/01/02 07:02:15;;;;;;;;;;;;;;;17.01;57.66;100741.38;4925117;28;97783;-66
2022/01/02 07:04:41;;;;;;;;;;;;;;;17.00;57.59;100737.84;4922522;28;98688;-57
2022/01/02 07:07:07;;;;;;;;;;;;;;;17.00;57.67;100739.75;4921885;28;98977;-66
2022/01/02 07:09:33;;;;;;;;;;;;;;;17.00;57.68;100739.75;4935528;28;110333;-65
2022/01/02 07:11:59;;;;;;;;;;;;;;;17.00;57.81;100747.94;4920647;28;115871;-58
2022/01/02 07:14:27;;;;;;;;;;;;;;;17.00;57.50;100745.22;4918921;28;98385;-58
2022/01/02 07:16:54;;;;;;;;;;;;;;;17.01;57.60;100738.66;4919518;28;98461;-66
2022/01/02 07:19:20;;;;;;;;;;;;;;;17.00;57.79;100740.56;4920841;28;120966;-65
2022/01/02 07:21:47;;;;;;;;;;;;;;;17.02;57.67;100751.19;4920352;28;97887;-58
2022/01/02 07:24:13;;;;;;;;;;;;;;;17.03;57.54;100769.91;4924216;28;98368;-58
2022/01/02 07:26:39;;;;;;;;;;;;;;;17.04;57.68;100781.63;4919464;28;98712;-58
2022/01/02 07:29:05;;;;;;;;;;;;;;;17.05;57.55;100770.41;4918869;28;128033;-57
2022/01/02 07:31:31;;;;;;;;;;;;;;;17.06;57.54;100763.88;4919893;28;116467;-58
2022/01/02 07:33:56;;;;;;;;;;;;;;;17.08;57.50;100756.19;4918552;28;127802;-58
2022/01/02 07:36:22;;;;;;;;;;;;;;;17.09;57.51;100757.00;4925181;28;128042;-58
2022/01/02 07:38:48;;;;;;;;;;;;;;;17.12;57.53;100765.38;4917959;28;125514;-58
2022/01/02 07:41:14;;;;;;;;;;;;;;;17.14;57.51;100770.53;4918772;28;117643;-58
2022/01/02 07:43:40;;;;;;;;;;;;;;;17.16;57.58;100771.81;4916999;28;128076;-58
2022/01/02 07:46:06;;;;;;;;;;;;;;;17.17;57.44;100773.44;4919370;28;126842;-58
2022/01/02 07:48:32;;;;;;;;;;;;;;;17.20;57.42;100779.38;4917737;28;98112;-58
2022/01/02 07:50:58;;;;;;;;;;;;;;;17.21;57.47;100770.09;4918071;28;115718;-58
2022/01/02 07:53:24;;;;;;;;;;;;;;;17.25;57.45;100769.22;4918584;28;98182;-58
2022/01/02 07:55:50;;;;;;;;;;;;;;;17.29;57.01;100759.31;4918206;28;125514;-58
2022/01/02 07:58:16;;;;;;;;;;;;;;;17.34;57.26;100742.84;4919624;28;104815;-58
2022/01/02 08:00:42;;;;;;;;;;;;;;;17.37;57.13;100733.25;4918697;28;116867;-66
2022/01/02 08:03:08;;;;;;;;;;;;;;;17.40;57.24;100741.63;4918650;28;98079;-65
2022/01/02 08:05:34;;;;;;;;;;;;;;;17.46;57.09;100749.69;4917492;28;121908;-58
2022/01/02 08:08:00;;;;;;;;;;;;;;;17.54;56.96;100743.50;4922588;28;117335;-57
2022/01/02 08:10:27;;;;;;;;;;;;;;;17.68;56.85;100749.72;4916669;28;118270;-58
2022/01/02 08:12:53;;;;;;;;;;;;;;;17.69;56.66;100745.91;4921807;28;98239;-58
2022/01/02 08:15:19;;;;;;;;;;;;;;;17.73;56.78;100738.72;4918344;28;110478;-58
2022/01/02 08:17:45;;;;;;;;;;;;;;;17.77;56.74;100728.81;4933786;28;97944;-58
2022/01/02 08:20:11;;;;;;;;;;;;;;;17.81;56.67;100737.19;4917512;28;115710;-58
2022/01/02 08:22:37;;;;;;;;;;;;;;;17.85;56.67;100728.09;4915837;28;127493;-58
2022/01/02 08:25:03;;;;;;;;;;;;;;;17.90;56.64;100727.94;4916217;28;128770;-58
2022/01/02 08:27:29;;;;;;;;;;;;;;;17.96;56.69;100719.63;4917945;28;102670;-58
2022/01/02 08:29:55;;;;;;;;;;;;;;;18.01;56.69;100727.72;4918649;28;98192;-58
2022/01/02 08:32:21;;;;;;;;;;;;;;;18.06;56.45;100724.84;4916870;28;103424;-58
2022/01/02 08:34:47;;;;;;;;;;;;;;;18.12;56.51;100718.97;4917820;28;99434;-58
2022/01/02 08:37:16;;;;;;;;;;;;;;;18.16;56.59;100713.69;4916950;28;126575;-58
2022/01/02 08:39:43;;;;;;;;;;;;;;;18.18;56.57;100716.09;4917339;28;98045;-58
2022/01/02 08:42:09;;;;;;;;;;;;;;;18.21;56.64;100710.81;4919737;28;98946;-58
2022/01/02 08:44:36;;;;;;;;;;;;;;;18.31;56.46;100713.31;4919762;28;98196;-58
2022/01/02 08:47:02;;;;;;;;;;;;;;;18.42;56.14;100713.81;4918426;28;99044;-58
2022/01/02 08:49:28;;;;;;;;;;;;;;;18.45;56.37;100729.56;4917731;28;98075;-58
2022/01/02 08:51:55;;;;;;;;;;;;;;;18.45;56.44;100731.50;4915752;28;99688;-58
2022/01/02 08:54:21;;;;;;;;;;;;;;;18.48;56.61;100723.50;4917039;28;99133;-58
2022/01/02 08:56:47;;;;;;;;;;;;;;;18.47;56.62;100732.81;4918470;28;97814;-58
2022/01/02 08:59:13;;;;;;;;;;;;;;;18.49;56.69;100738.75;4918032;28;97861;-58
2022/01/02 09:01:38;;;;;;;;;;;;;;;18.52;56.52;100743.56;4915877;28;98349;-58
2022/01/02 09:04:04;;;;;;;;;;;;;;;18.53;56.51;100745.19;4916148;28;112754;-58
2022/01/02 09:06:30;;;;;;;;;;;;;;;18.59;56.48;100745.88;4916551;28;114675;-58
2022/01/02 09:08:56;;;;;;;;;;;;;;;18.60;56.66;100751.00;4916410;28;115556;-58
2022/01/02 09:11:23;;;;;;;;;;;;;;;18.60;56.62;100750.19;4917701;28;98435;-58
2022/01/02 09:13:49;;;;;;;;;;;;;;;18.63;56.69;100752.31;4916683;28;107043;-59
2022/01/02 09:16:14;;;;;;;;;;;;;;;18.67;56.82;100760.66;4920651;28;127470;-58
2022/01/02 09:18:40;;;;;;;;;;;;;;;18.69;56.83;100758.41;4918007;28;115355;-58
2022/01/02 09:21:06;;;;;;;;;;;;;;;18.73;56.51;100748.50;4917082;28;98621;-58
2022/01/02 09:23:32;;;;;;;;;;;;;;;18.81;56.69;100739.53;4919369;28;128729;-58
2022/01/02 09:25:58;;;;;;;;;;;;;;;18.87;56.51;100730.09;4924035;28;127505;-59
2022/01/02 09:28:24;;;;;;;;;;;;;;;18.96;56.52;100733.66;4919939;28;117837;-58
2022/01/02 09:30:50;;;;;;;;;;;;;;;19.01;56.60;100722.56;4906045;28;127529;-58
2022/01/02 09:33:16;;;;;;;;;;;;;;;18.99;56.59;100724.84;4918545;28;98063;-58
2022/01/02 09:35:42;;;;;;;;;;;;;;;18.98;56.85;100716.94;4934359;28;103551;-58
2022/01/02 09:38:08;;;;;;;;;;;;;;;18.98;56.72;100717.78;4921404;28;97847;-58
2022/01/02 09:40:36;;;;;;;;;;;;;;;19.02;56.83;100701.53;4918786;28;119772;-58
2022/01/02 09:43:02;;;;;;;;;;;;;;;19.10;56.67;100692.56;4918925;28;128053;-58
2022/01/02 09:45:28;;;;;;;;;;;;;;;19.20;56.71;100699.63;4900614;28;115787;-58
2022/01/02 09:47:54;;;;;;;;;;;;;;;19.29;56.49;100698.50;4921068;28;98047;-56
2022/01/02 09:50:20;;;;;;;;;;;;;;;19.29;56.72;100693.03;4918465;28;123886;-56
2022/01/02 09:52:46;;;;;;;;;;;;;;;19.26;56.86;100693.72;4911738;28;101252;-63
2022/01/02 09:55:12;;;;;;;;;;;;;;;19.24;56.82;100689.69;4920400;28;98853;-63
2022/01/02 09:57:43;;;;;;;;;;;;;;;19.22;56.84;100687.28;4920658;28;118375;-63
2022/01/02 10:00:09;;;;;;;;;;;;;;;19.22;57.16;100686.47;4921481;28;99026;-64
2022/01/02 10:02:56;;;;;;;;;;;;;;;19.16;57.24;100685.00;4920808;28;117383;-64
2022/01/02 10:05:24;;;;;;;;;;;;;;;19.10;57.26;100678.91;4921674;28;97924;-63
2022/01/02 10:07:51;;;;;;;;;;;;;;;19.05;57.51;100676.31;4922996;28;98203;-63
2022/01/02 10:10:17;;;;;;;;;;;;;;;19.01;57.60;100665.22;4915433;28;115320;-63
2022/01/02 10:12:43;;;;;;;;;;;;;;;18.97;57.58;100649.78;4921103;28;101026;-63
2022/01/02 10:15:13;;;;;;;;;;;;;;;18.97;57.63;100647.06;4920962;28;108739;-62
2022/01/02 10:17:58;;;;;;;;;;;;;;;18.99;57.49;100642.09;4918717;28;97918;-63
2022/01/02 10:20:27;;;;;;;;;;;;;;;19.02;57.74;100642.25;4921018;28;97867;-63
2022/01/02 10:23:38;;;;;;;;;;;;;;;19.03;57.60;100638.41;4920207;28;99122;-63
2022/01/02 10:26:05;;;;;;;;;;;;;;;18.99;57.52;100637.44;4919231;28;97853;-63
2022/01/02 10:28:35;;;;;;;;;;;;;;;19.00;57.63;100633.56;4919764;28;98090;-63
2022/01/02 10:31:07;;;;;;;;;;;;;;;19.02;57.77;100633.25;4920516;28;98178;-63
2022/01/02 10:33:50;;;;;;;;;;;;;;;19.06;57.61;100629.56;4916827;28;99868;-63
2022/01/02 10:36:24;;;;;;;;;;;;;;;19.12;57.49;100624.75;4929669;28;98219;-66
2022/01/02 10:39:04;;;;;;;;;;;;;;;19.20;57.57;100623.13;4921759;28;97826;-65
2022/01/02 10:41:45;;;;;;;;;;;;;;;19.32;57.29;100626.81;4925273;28;117553;-66
2022/01/02 10:44:20;;;;;;;;;;;;;;;19.43;56.93;100621.84;4919319;28;98848;-66
2022/01/02 10:47:17;;;;;;;;;;;;;;;19.50;57.13;100613.16;4921052;28;97854;-66
2022/01/02 10:49:55;;;;;;;;;;;;;;;19.61;57.01;100608.97;4925789;28;98054;-66
2022/01/02 10:52:30;;;;;;;;;;;;;;;19.63;57.02;100606.72;4921264;28;98129;-66
2022/01/02 10:54:57;;;;;;;;;;;;;;;19.64;57.05;100591.13;4934776;28;123573;-65
2022/01/02 10:57:23;;;;;;;;;;;;;;;19.64;56.99;100585.66;4920214;28;98844;-66
2022/01/02 10:59:49;;;;;;;;;;;;;;;19.61;57.28;100579.72;4922759;28;98202;-66
2022/01/02 11:02:16;;;;;;;;;;;;;;;19.58;57.33;100574.06;4918468;28;125856;-66
2022/01/02 11:04:59;;;;;;;;;;;;;;;19.55;57.33;100567.31;4920579;28;99700;-66
2022/01/02 11:07:25;;;;;;;;;;;;;;;19.52;57.58;100557.03;4919852;28;98336;-67
2022/01/02 11:09:53;;;;;;;;;;;;;;;19.52;57.58;100537.88;4921748;28;97737;-66
2022/01/02 11:12:19;;;;;;;;;;;;;;;19.56;57.54;100540.78;4923952;28;99167;-66
2022/01/02 11:14:46;;;;;;;;;;;;;;;19.57;57.42;100534.19;4921086;28;98392;-66
2022/01/02 11:17:13;;;;;;;;;;;;;;;19.57;57.56;100521.34;4919860;28;117679;-58
2022/01/02 11:19:39;;;;;;;;;;;;;;;19.59;57.45;100526.47;4922954;28;97807;-58
2022/01/02 11:22:05;;;;;;;;;;;;;;;19.59;57.61;100513.59;4934815;28;100402;-65
2022/01/02 11:24:34;;;;;;;;;;;;;;;19.57;57.61;100502.19;4917676;28;120084;-66
2022/01/02 11:27:10;;;;;;;;;;;;;;;19.53;57.78;100494.94;4917367;28;98045;-58
2022/01/02 11:29:36;;;;;;;;;;;;;;;19.47;57.64;100488.88;4917555;28;97798;-66
2022/01/02 11:32:19;;;;;;;;;;;;;;;19.44;57.91;100478.59;4919670;28;106174;-58
2022/01/02 11:34:46;;;;;;;;;;;;;;;19.42;57.96;100474.59;4923475;28;109566;-66
2022/01/02 11:37:12;;;;;;;;;;;;;;;19.40;57.79;100463.97;4921551;28;97873;-58
2022/01/02 11:39:55;;;;;;;;;;;;;;;19.38;57.89;100442.44;4922795;28;98072;-66
2022/01/02 11:42:41;;;;;;;;;;;;;;;19.35;57.90;100434.09;4919429;28;99467;-66
2022/01/02 11:45:31;;;;;;;;;;;;;;;19.32;58.08;100424.59;4920390;28;98665;-66
2022/01/02 11:47:57;;;;;;;;;;;;;;;19.31;58.05;100419.47;4911572;28;98126;-66
2022/01/02 11:50:36;;;;;;;;;;;;;;;19.31;58.12;100417.56;4918509;28;116569;-59
2022/01/02 11:53:14;;;;;;;;;;;;;;;19.34;57.98;100413.38;4919689;28;98960;-65
2022/01/02 11:55:47;;;;;;;;;;;;;;;19.36;58.01;100409.16;4923434;28;98000;-66
2022/01/02 11:58:14;;;;;;;;;;;;;;;19.37;58.10;100418.97;4921232;28;97875;-58
2022/01/02 12:00:44;;;;;;;;;;;;;;;19.37;57.95;100405.31;4919041;28;98444;-66
2022/01/02 12:03:38;;;;;;;;;;;;;;;19.37;57.99;100407.22;4919677;28;99046;-66
2022/01/02 12:06:17;;;;;;;;;;;;;;;19.37;58.17;100402.59;4914801;28;97991;-59
2022/01/02 12:08:43;;;;;;;;;;;;;;;19.36;58.21;100395.50;4913052;28;98381;-58
2022/01/02 12:11:34;;;;;;;;;;;;;;;19.33;58.15;100393.41;4916478;28;97856;-66
2022/01/02 12:14:07;;;;;;;;;;;;;;;19.33;58.23;100387.16;4916943;28;98018;-58
2022/01/02 12:16:37;;;;;;;;;;;;;;;19.33;58.27;100377.03;4923936;28;98953;-67
2022/01/02 12:19:03;;;;;;;;;;;;;;;19.33;58.29;100371.56;4916035;28;99117;-66
2022/01/02 12:21:31;;;;;;;;;;;;;;;19.33;58.16;100357.88;4918192;28;98128;-66
2022/01/02 12:23:57;;;;;;;;;;;;;;;19.34;58.31;100358.72;4920309;28;99409;-58
2022/01/02 12:26:31;;;;;;;;;;;;;;;19.34;58.24;100356.78;4916991;28;97876;-67
2022/01/02 12:28:59;;;;;;;;;;;;;;;19.35;58.19;100349.38;4916844;28;98370;-58
2022/01/02 12:31:32;;;;;;;;;;;;;;;19.34;58.31;100337.66;4918434;28;98082;-66
2022/01/02 12:34:07;;;;;;;;;;;;;;;19.32;58.44;100337.16;4917775;28;97993;-66
2022/01/02 12:36:33;;;;;;;;;;;;;;;19.32;58.36;100333.63;4917629;28;98291;-66
2022/01/02 12:39:04;;;;;;;;;;;;;;;19.29;58.22;100307.75;4916457;28;98482;-58
2022/01/02 12:41:31;;;;;;;;;;;;;;;19.28;58.29;100295.25;4917520;28;97866;-66
2022/01/02 12:43:58;;;;;;;;;;;;;;;19.28;58.33;100291.72;4915121;28;99001;-58